sensor_id;sensor_type;location;lat;lon;timestamp;pressure;altitude;pressure_sealevel;temperature;humidity
12963;BME280;6546;49.882;8.666;2023-04-29T00:00:34;99697.91;;;13.06;81.85
12963;BME280;6546;49.882;8.666;2023-04-29T00:03:00;99695.66;;;13.03;81.97
12963;BME280;6546;49.882;8.666;2023-04-29T00:05:29;99691.28;;;13.03;82.16
12963;BME280;6546;49.882;8.666;2023-04-29T00:07:55;99688.88;;;13.02;82.06
12963;BME280;6546;49.882;8.666;2023-04-29T00:10:22;99688.69;;;13.03;81.69
12963;BME280;6546;49.882;8.666;2023-04-29T00:12:48;99691.84;;;12.99;81.70
12963;BME280;6546;49.882;8.666;2023-04-29T00:15:16;99690.63;;;12.95;82.02
12963;BME280;6546;49.882;8.666;2023-04-29T00:17:42;99692.56;;;12.93;82.13
12963;BME280;6546;49.882;8.666;2023-04-29T00:20:10;99686.63;;;12.99;81.76
12963;BME280;6546;49.882;8.666;2023-04-29T00:22:38;99693.00;;;12.96;82.00
12963;BME280;6546;49.882;8.666;2023-04-29T00:25:06;99697.22;;;12.97;82.21
12963;BME280;6546;49.882;8.666;2023-04-29T00:27:33;99697.22;;;12.97;81.92
12963;BME280;6546;49.882;8.666;2023-04-29T00:29:59;99694.81;;;12.96;82.00
12963;BME280;6546;49.882;8.666;2023-04-29T00:32:26;99695.56;;;12.90;81.82
12963;BME280;6546;49.882;8.666;2023-04-29T00:34:52;99694.13;;;12.87;82.00
12963;BME280;6546;49.882;8.666;2023-04-29T00:37:19;99692.50;;;12.86;81.77
12963;BME280;6546;49.882;8.666;2023-04-29T00:39:47;99690.13;;;12.85;81.96
12963;BME280;6546;49.882;8.666;2023-04-29T00:42:13;99696.50;;;12.82;81.75
12963;BME280;6546;49.882;8.666;2023-04-29T00:44:40;99692.44;;;12.80;81.75
12963;BME280;6546;49.882;8.666;2023-04-29T00:47:07;99691.84;;;12.78;81.88
12963;BME280;6546;49.882;8.666;2023-04-29T00:49:36;99694.97;;;12.73;81.92
12963;BME280;6546;49.882;8.666;2023-04-29T00:52:03;99694.75;;;12.68;81.98
12963;BME280;6546;49.882;8.666;2023-04-29T00:54:29;99696.53;;;12.68;82.05
12963;BME280;6546;49.882;8.666;2023-04-29T00:56:58;99701.94;;;12.66;81.87
12963;BME280;6546;49.882;8.666;2023-04-29T00:59:25;99695.94;;;12.66;81.85
12963;BME280;6546;49.882;8.666;2023-04-29T01:01:57;99704.53;;;12.66;81.99
12963;BME280;6546;49.882;8.666;2023-04-29T01:04:24;99705.94;;;12.69;81.96
12963;BME280;6546;49.882;8.666;2023-04-29T01:06:59;99702.59;;;12.75;82.21
12963;BME280;6546;49.882;8.666;2023-04-29T01:09:46;99709.41;;;12.76;82.05
12963;BME280;6546;49.882;8.666;2023-04-29T01:12:20;99702.25;;;12.78;82.16
12963;BME280;6546;49.882;8.666;2023-04-29T01:14:53;99710.63;;;12.80;82.05
12963;BME280;6546;49.882;8.666;2023-04-29T01:17:24;99714.47;;;12.84;82.02
12963;BME280;6546;49.882;8.666;2023-04-29T01:19:54;99699.69;;;12.84;82.21
12963;BME280;6546;49.882;8.666;2023-04-29T01:22:21;99713.13;;;12.88;82.31
12963;BME280;6546;49.882;8.666;2023-04-29T01:24:49;99704.34;;;12.89;82.12
12963;BME280;6546;49.882;8.666;2023-04-29T01:27:22;99714.97;;;12.94;82.05
12963;BME280;6546;49.882;8.666;2023-04-29T01:29:58;99718.19;;;12.96;82.49
12963;BME280;6546;49.882;8.666;2023-04-29T01:32:36;99720.41;;;12.99;82.44
12963;BME280;6546;49.882;8.666;2023-04-29T01:35:14;99716.28;;;13.04;82.25
12963;BME280;6546;49.882;8.666;2023-04-29T01:37:49;99711.53;;;13.08;82.25
12963;BME280;6546;49.882;8.666;2023-04-29T01:40:25;99716.56;;;13.09;82.21
12963;BME280;6546;49.882;8.666;2023-04-29T01:43:00;99707.56;;;13.12;82.26
12963;BME280;6546;49.882;8.666;2023-04-29T01:45:28;99721.38;;;13.12;82.26
12963;BME280;6546;49.882;8.666;2023-04-29T01:47:56;99707.84;;;13.17;82.23
12963;BME280;6546;49.882;8.666;2023-04-29T01:50:24;99715.25;;;13.20;82.33
12963;BME280;6546;49.882;8.666;2023-04-29T01:52:51;99714.88;;;13.23;82.05
12963;BME280;6546;49.882;8.666;2023-04-29T01:55:19;99708.69;;;13.24;82.30
12963;BME280;6546;49.882;8.666;2023-04-29T01:57:45;99706.91;;;13.25;82.23
12963;BME280;6546;49.882;8.666;2023-04-29T02:00:12;99702.88;;;13.22;82.35
12963;BME280;6546;49.882;8.666;2023-04-29T02:02:39;99712.88;;;13.25;82.16
12963;BME280;6546;49.882;8.666;2023-04-29T02:05:06;99707.88;;;13.24;82.64
12963;BME280;6546;49.882;8.666;2023-04-29T02:07:34;99708.69;;;13.24;82.32
12963;BME280;6546;49.882;8.666;2023-04-29T02:10:00;99712.09;;;13.25;82.26
12963;BME280;6546;49.882;8.666;2023-04-29T02:12:28;99718.09;;;13.25;82.35
12963;BME280;6546;49.882;8.666;2023-04-29T02:14:54;99719.91;;;13.25;82.08
12963;BME280;6546;49.882;8.666;2023-04-29T02:17:21;99725.72;;;13.27;82.04
12963;BME280;6546;49.882;8.666;2023-04-29T02:19:48;99724.09;;;13.26;82.08
12963;BME280;6546;49.882;8.666;2023-04-29T02:22:14;99739.69;;;13.26;82.17
12963;BME280;6546;49.882;8.666;2023-04-29T02:24:41;99735.69;;;13.23;82.25
12963;BME280;6546;49.882;8.666;2023-04-29T02:27:07;99737.91;;;13.26;82.12
12963;BME280;6546;49.882;8.666;2023-04-29T02:29:35;99742.50;;;13.24;81.98
12963;BME280;6546;49.882;8.666;2023-04-29T02:32:02;99739.25;;;13.22;82.03
12963;BME280;6546;49.882;8.666;2023-04-29T02:34:29;99742.28;;;13.26;81.90
12963;BME280;6546;49.882;8.666;2023-04-29T02:36:56;99734.31;;;13.27;82.24
12963;BME280;6546;49.882;8.666;2023-04-29T02:39:23;99744.88;;;13.26;81.95
12963;BME280;6546;49.882;8.666;2023-04-29T02:41:53;99747.69;;;13.24;81.90
12963;BME280;6546;49.882;8.666;2023-04-29T02:44:19;99751.88;;;13.25;81.89
12963;BME280;6546;49.882;8.666;2023-04-29T02:46:47;99755.50;;;13.24;82.03
12963;BME280;6546;49.882;8.666;2023-04-29T02:49:14;99755.28;;;13.26;81.83
12963;BME280;6546;49.882;8.666;2023-04-29T02:51:40;99753.31;;;13.28;81.90
12963;BME280;6546;49.882;8.666;2023-04-29T02:54:07;99751.72;;;13.27;81.56
12963;BME280;6546;49.882;8.666;2023-04-29T02:56:33;99764.13;;;13.31;81.44
12963;BME280;6546;49.882;8.666;2023-04-29T02:59:00;99748.91;;;13.28;80.93
12963;BME280;6546;49.882;8.666;2023-04-29T03:01:26;99751.88;;;13.25;80.94
12963;BME280;6546;49.882;8.666;2023-04-29T03:03:54;99747.06;;;13.22;80.99
12963;BME280;6546;49.882;8.666;2023-04-29T03:06:21;99750.47;;;13.23;81.30
12963;BME280;6546;49.882;8.666;2023-04-29T03:08:48;99747.06;;;13.22;81.29
12963;BME280;6546;49.882;8.666;2023-04-29T03:11:14;99747.88;;;13.23;81.02
12963;BME280;6546;49.882;8.666;2023-04-29T03:13:41;99744.84;;;13.19;81.54
12963;BME280;6546;49.882;8.666;2023-04-29T03:16:07;99748.06;;;13.21;81.36
12963;BME280;6546;49.882;8.666;2023-04-29T03:18:34;99745.84;;;13.18;81.52
12963;BME280;6546;49.882;8.666;2023-04-29T03:21:03;99748.44;;;13.18;81.42
12963;BME280;6546;49.882;8.666;2023-04-29T03:23:29;99757.22;;;13.17;81.39
12963;BME280;6546;49.882;8.666;2023-04-29T03:25:56;99748.63;;;13.17;81.62
12963;BME280;6546;49.882;8.666;2023-04-29T03:28:22;99753.00;;;13.16;81.77
12963;BME280;6546;49.882;8.666;2023-04-29T03:30:49;99755.59;;;13.16;81.73
12963;BME280;6546;49.882;8.666;2023-04-29T03:33:16;99753.38;;;13.13;81.65
12963;BME280;6546;49.882;8.666;2023-04-29T03:35:42;99758.84;;;13.18;81.65
12963;BME280;6546;49.882;8.666;2023-04-29T03:38:10;99761.78;;;13.15;81.69
12963;BME280;6546;49.882;8.666;2023-04-29T03:40:37;99766.63;;;13.18;81.21
12963;BME280;6546;49.882;8.666;2023-04-29T03:43:03;99750.34;;;13.09;81.51
12963;BME280;6546;49.882;8.666;2023-04-29T03:45:31;99756.19;;;13.11;81.53
12963;BME280;6546;49.882;8.666;2023-04-29T03:47:57;99766.38;;;13.13;81.24
12963;BME280;6546;49.882;8.666;2023-04-29T03:50:24;99763.97;;;13.11;81.23
12963;BME280;6546;49.882;8.666;2023-04-29T03:52:51;99769.34;;;13.10;81.28
12963;BME280;6546;49.882;8.666;2023-04-29T03:55:19;99766.75;;;13.10;81.48
12963;BME280;6546;49.882;8.666;2023-04-29T03:57:46;99769.34;;;13.10;81.05
12963;BME280;6546;49.882;8.666;2023-04-29T04:00:13;99782.34;;;13.10;81.27
12963;BME280;6546;49.882;8.666;2023-04-29T04:02:39;99771.41;;;13.14;80.35
12963;BME280;6546;49.882;8.666;2023-04-29T04:05:06;99778.94;;;13.09;80.43
12963;BME280;6546;49.882;8.666;2023-04-29T04:07:33;99786.09;;;13.07;80.54
12963;BME280;6546;49.882;8.666;2023-04-29T04:09:59;99787.88;;;13.07;80.50
12963;BME280;6546;49.882;8.666;2023-04-29T04:12:27;99791.28;;;13.07;80.14
12963;BME280;6546;49.882;8.666;2023-04-29T04:14:54;99789.88;;;13.05;80.35
12963;BME280;6546;49.882;8.666;2023-04-29T04:17:22;99796.50;;;13.07;80.51
12963;BME280;6546;49.882;8.666;2023-04-29T04:19:48;99790.66;;;13.05;80.26
12963;BME280;6546;49.882;8.666;2023-04-29T04:22:15;99795.06;;;13.05;80.21
12963;BME280;6546;49.882;8.666;2023-04-29T04:24:41;99801.06;;;13.05;80.34
12963;BME280;6546;49.882;8.666;2023-04-29T04:27:08;99807.25;;;13.04;80.16
12963;BME280;6546;49.882;8.666;2023-04-29T04:29:36;99806.44;;;13.04;80.16
12963;BME280;6546;49.882;8.666;2023-04-29T04:32:03;99815.88;;;13.05;80.18
12963;BME280;6546;49.882;8.666;2023-04-29T04:34:30;99809.97;;;13.11;80.06
12963;BME280;6546;49.882;8.666;2023-04-29T04:36:56;99811.53;;;13.12;79.95
12963;BME280;6546;49.882;8.666;2023-04-29T04:39:23;99809.97;;;13.11;79.46
12963;BME280;6546;49.882;8.666;2023-04-29T04:41:49;99809.97;;;13.11;79.64
12963;BME280;6546;49.882;8.666;2023-04-29T04:44:16;99815.59;;;13.14;78.76
12963;BME280;6546;49.882;8.666;2023-04-29T04:46:44;99818.00;;;13.16;79.02
12963;BME280;6546;49.882;8.666;2023-04-29T04:49:10;99819.63;;;13.17;79.19
12963;BME280;6546;49.882;8.666;2023-04-29T04:51:37;99824.81;;;13.17;79.12
12963;BME280;6546;49.882;8.666;2023-04-29T04:54:03;99822.00;;;13.19;79.03
12963;BME280;6546;49.882;8.666;2023-04-29T04:56:30;99824.81;;;13.17;78.98
12963;BME280;6546;49.882;8.666;2023-04-29T04:58:56;99828.03;;;13.19;79.29
12963;BME280;6546;49.882;8.666;2023-04-29T05:01:23;99831.44;;;13.20;79.23
12963;BME280;6546;49.882;8.666;2023-04-29T05:03:50;99839.66;;;13.23;79.17
12963;BME280;6546;49.882;8.666;2023-04-29T05:06:17;99831.69;;;13.25;78.89
12963;BME280;6546;49.882;8.666;2023-04-29T05:08:44;99840.28;;;13.25;78.94
12963;BME280;6546;49.882;8.666;2023-04-29T05:11:15;99841.66;;;13.21;79.00
12963;BME280;6546;49.882;8.666;2023-04-29T05:13:42;99841.28;;;13.24;78.96
12963;BME280;6546;49.882;8.666;2023-04-29T05:16:09;99849.09;;;13.24;78.89
12963;BME280;6546;49.882;8.666;2023-04-29T05:18:36;99852.31;;;13.26;78.70
12963;BME280;6546;49.882;8.666;2023-04-29T05:21:04;99856.31;;;13.29;78.49
12963;BME280;6546;49.882;8.666;2023-04-29T05:23:30;99854.34;;;13.31;78.28
12963;BME280;6546;49.882;8.666;2023-04-29T05:25:57;99863.94;;;13.30;77.86
12963;BME280;6546;49.882;8.666;2023-04-29T05:28:24;99871.75;;;13.30;78.28
12963;BME280;6546;49.882;8.666;2023-04-29T05:30:51;99864.94;;;13.29;78.27
12963;BME280;6546;49.882;8.666;2023-04-29T05:33:18;99876.22;;;13.36;77.51
12963;BME280;6546;49.882;8.666;2023-04-29T05:35:45;99885.19;;;13.34;77.31
12963;BME280;6546;49.882;8.666;2023-04-29T05:38:12;99885.00;;;13.35;77.46
12963;BME280;6546;49.882;8.666;2023-04-29T05:40:39;99896.03;;;13.37;77.56
12963;BME280;6546;49.882;8.666;2023-04-29T05:43:06;99896.22;;;13.36;77.91
12963;BME280;6546;49.882;8.666;2023-04-29T05:45:32;99904.44;;;13.39;77.83
12963;BME280;6546;49.882;8.666;2023-04-29T05:47:59;99904.88;;;13.43;77.61
12963;BME280;6546;49.882;8.666;2023-04-29T05:50:25;99906.91;;;13.47;77.27
12963;BME280;6546;49.882;8.666;2023-04-29T05:52:52;99907.00;;;13.54;77.15
12963;BME280;6546;49.882;8.666;2023-04-29T05:55:20;99912.91;;;13.62;76.64
12963;BME280;6546;49.882;8.666;2023-04-29T05:57:47;99908.94;;;13.66;76.41
12963;BME280;6546;49.882;8.666;2023-04-29T06:00:13;99924.66;;;13.80;76.45
12963;BME280;6546;49.882;8.666;2023-04-29T06:02:40;99912.28;;;13.82;74.59
12963;BME280;6546;49.882;8.666;2023-04-29T06:05:10;99922.06;;;14.01;73.45
12963;BME280;6546;49.882;8.666;2023-04-29T06:07:36;99916.16;;;14.13;72.46
12963;BME280;6546;49.882;8.666;2023-04-29T06:10:04;99924.94;;;14.34;71.42
12963;BME280;6546;49.882;8.666;2023-04-29T06:12:32;99938.03;;;14.40;71.09
12963;BME280;6546;49.882;8.666;2023-04-29T06:14:58;99939.88;;;14.46;69.67
12963;BME280;6546;49.882;8.666;2023-04-29T06:17:25;99941.09;;;14.50;68.45
12963;BME280;6546;49.882;8.666;2023-04-29T06:19:53;99943.41;;;14.66;68.45
12963;BME280;6546;49.882;8.666;2023-04-29T06:22:20;99945.09;;;14.81;66.34
12963;BME280;6546;49.882;8.666;2023-04-29T06:24:47;99953.31;;;15.72;65.01
12963;BME280;6546;49.882;8.666;2023-04-29T06:27:15;99959.38;;;16.25;62.00
12963;BME280;6546;49.882;8.666;2023-04-29T06:29:43;99955.16;;;16.64;59.08
12963;BME280;6546;49.882;8.666;2023-04-29T06:32:09;99963.94;;;16.96;57.87
12963;BME280;6546;49.882;8.666;2023-04-29T06:34:38;99970.44;;;16.54;57.68
12963;BME280;6546;49.882;8.666;2023-04-29T06:37:04;99975.66;;;16.34;58.11
12963;BME280;6546;49.882;8.666;2023-04-29T06:39:31;99965.19;;;16.14;58.84
12963;BME280;6546;49.882;8.666;2023-04-29T06:41:57;99975.66;;;16.08;59.32
12963;BME280;6546;49.882;8.666;2023-04-29T06:44:24;99963.19;;;16.16;59.07
12963;BME280;6546;49.882;8.666;2023-04-29T06:46:53;99966.81;;;16.02;58.60
12963;BME280;6546;49.882;8.666;2023-04-29T06:49:19;99972.41;;;15.86;59.61
12963;BME280;6546;49.882;8.666;2023-04-29T06:51:46;99972.34;;;15.60;60.98
12963;BME280;6546;49.882;8.666;2023-04-29T06:54:13;99967.88;;;15.47;61.50
12963;BME280;6546;49.882;8.666;2023-04-29T06:56:39;99980.66;;;15.36;61.88
12963;BME280;6546;49.882;8.666;2023-04-29T06:59:06;99977.00;;;15.23;61.71
12963;BME280;6546;49.882;8.666;2023-04-29T07:01:34;99982.00;;;15.18;61.57
12963;BME280;6546;49.882;8.666;2023-04-29T07:04:03;99982.19;;;15.17;62.24
12963;BME280;6546;49.882;8.666;2023-04-29T07:06:30;99985.25;;;14.93;62.24
12963;BME280;6546;49.882;8.666;2023-04-29T07:08:57;99989.56;;;14.73;62.68
12963;BME280;6546;49.882;8.666;2023-04-29T07:11:23;99991.34;;;14.72;63.27
12963;BME280;6546;49.882;8.666;2023-04-29T07:13:51;99984.34;;;14.73;63.59
12963;BME280;6546;49.882;8.666;2023-04-29T07:16:18;99994.28;;;14.62;62.24
12963;BME280;6546;49.882;8.666;2023-04-29T07:18:46;100002.72;;;14.64;62.25
12963;BME280;6546;49.882;8.666;2023-04-29T07:21:14;99998.97;;;14.73;62.34
12963;BME280;6546;49.882;8.666;2023-04-29T07:23:41;100004.59;;;14.77;62.60
12963;BME280;6546;49.882;8.666;2023-04-29T07:26:09;100004.66;;;14.84;64.33
12963;BME280;6546;49.882;8.666;2023-04-29T07:28:36;100001.81;;;14.79;62.87
12963;BME280;6546;49.882;8.666;2023-04-29T07:31:02;100014.31;;;14.90;62.13
12963;BME280;6546;49.882;8.666;2023-04-29T07:33:29;100014.94;;;14.92;61.39
12963;BME280;6546;49.882;8.666;2023-04-29T07:35:56;100014.19;;;14.98;60.85
12963;BME280;6546;49.882;8.666;2023-04-29T07:38:24;100015.03;;;15.05;60.80
12963;BME280;6546;49.882;8.666;2023-04-29T07:40:50;100007.69;;;15.21;60.90
12963;BME280;6546;49.882;8.666;2023-04-29T07:43:17;100013.09;;;15.20;60.04
12963;BME280;6546;49.882;8.666;2023-04-29T07:45:43;100002.25;;;15.16;60.29
12963;BME280;6546;49.882;8.666;2023-04-29T07:48:10;100020.94;;;15.27;60.33
12963;BME280;6546;49.882;8.666;2023-04-29T07:50:36;100021.13;;;15.18;60.12
12963;BME280;6546;49.882;8.666;2023-04-29T07:53:03;100028.34;;;15.23;60.37
12963;BME280;6546;49.882;8.666;2023-04-29T07:55:31;100036.34;;;15.15;60.44
12963;BME280;6546;49.882;8.666;2023-04-29T07:57:58;100042.69;;;15.06;59.90
12963;BME280;6546;49.882;8.666;2023-04-29T08:00:24;100047.03;;;14.92;60.38
12963;BME280;6546;49.882;8.666;2023-04-29T08:02:52;100052.97;;;14.80;60.12
12963;BME280;6546;49.882;8.666;2023-04-29T08:05:20;100042.75;;;14.57;59.30
12963;BME280;6546;49.882;8.666;2023-04-29T08:07:47;100051.75;;;14.54;59.23
12963;BME280;6546;49.882;8.666;2023-04-29T08:10:14;100049.13;;;14.54;59.68
12963;BME280;6546;49.882;8.666;2023-04-29T08:12:44;100041.91;;;14.50;60.45
12963;BME280;6546;49.882;8.666;2023-04-29T08:15:11;100058.47;;;14.63;61.16
12963;BME280;6546;49.882;8.666;2023-04-29T08:17:37;100047.13;;;14.50;60.56
12963;BME280;6546;49.882;8.666;2023-04-29T08:20:05;100066.63;;;14.60;59.66
12963;BME280;6546;49.882;8.666;2023-04-29T08:22:33;100067.09;;;14.43;59.42
12963;BME280;6546;49.882;8.666;2023-04-29T08:24:59;100074.22;;;14.34;58.71
12963;BME280;6546;49.882;8.666;2023-04-29T08:27:27;100071.63;;;14.19;58.95
12963;BME280;6546;49.882;8.666;2023-04-29T08:29:55;100066.34;;;14.13;59.45
12963;BME280;6546;49.882;8.666;2023-04-29T08:32:21;100063.00;;;14.19;59.63
12963;BME280;6546;49.882;8.666;2023-04-29T08:34:48;100083.75;;;14.27;60.05
12963;BME280;6546;49.882;8.666;2023-04-29T08:37:15;100079.13;;;14.44;59.89
12963;BME280;6546;49.882;8.666;2023-04-29T08:39:41;100078.75;;;14.47;59.05
12963;BME280;6546;49.882;8.666;2023-04-29T08:42:11;100090.38;;;14.51;58.96
12963;BME280;6546;49.882;8.666;2023-04-29T08:44:39;100090.13;;;14.67;59.38
12963;BME280;6546;49.882;8.666;2023-04-29T08:47:07;100083.75;;;14.69;58.78
12963;BME280;6546;49.882;8.666;2023-04-29T08:49:34;100092.41;;;14.77;58.84
12963;BME280;6546;49.882;8.666;2023-04-29T08:52:02;100095.66;;;14.79;59.38
12963;BME280;6546;49.882;8.666;2023-04-29T08:54:30;100097.16;;;14.66;58.42
12963;BME280;6546;49.882;8.666;2023-04-29T08:56:57;100089.28;;;14.39;59.29
12963;BME280;6546;49.882;8.666;2023-04-29T08:59:27;100093.28;;;14.20;59.51
12963;BME280;6546;49.882;8.666;2023-04-29T09:01:55;100091.56;;;14.27;60.23
12963;BME280;6546;49.882;8.666;2023-04-29T09:04:30;100114.84;;;14.14;60.07
12963;BME280;6546;49.882;8.666;2023-04-29T09:07:03;100113.50;;;14.03;60.65
12963;BME280;6546;49.882;8.666;2023-04-29T09:09:31;100106.59;;;13.96;61.24
12963;BME280;6546;49.882;8.666;2023-04-29T09:11:58;100115.94;;;14.05;61.30
12963;BME280;6546;49.882;8.666;2023-04-29T09:14:24;100108.06;;;13.98;61.53
12963;BME280;6546;49.882;8.666;2023-04-29T09:16:51;100107.22;;;14.12;61.45
12963;BME280;6546;49.882;8.666;2023-04-29T09:19:32;100114.47;;;14.17;61.01
12963;BME280;6546;49.882;8.666;2023-04-29T09:21:59;100117.09;;;14.17;61.59
12963;BME280;6546;49.882;8.666;2023-04-29T09:24:27;100127.97;;;14.06;60.78
12963;BME280;6546;49.882;8.666;2023-04-29T09:26:55;100118.91;;;14.02;61.00
12963;BME280;6546;49.882;8.666;2023-04-29T09:29:21;100126.53;;;14.03;60.86
12963;BME280;6546;49.882;8.666;2023-04-29T09:31:48;100130.84;;;14.11;60.92
12963;BME280;6546;49.882;8.666;2023-04-29T09:34:15;100129.81;;;14.27;60.69
12963;BME280;6546;49.882;8.666;2023-04-29T09:36:44;100127.66;;;14.15;60.81
12963;BME280;6546;49.882;8.666;2023-04-29T09:39:13;100131.09;;;14.16;61.00
12963;BME280;6546;49.882;8.666;2023-04-29T09:41:42;100133.72;;;14.01;61.11
12963;BME280;6546;49.882;8.666;2023-04-29T09:44:23;100136.13;;;14.03;61.71
12963;BME280;6546;49.882;8.666;2023-04-29T09:46:54;100148.00;;;14.05;61.79
12963;BME280;6546;49.882;8.666;2023-04-29T09:49:22;100143.94;;;14.03;61.84
12963;BME280;6546;49.882;8.666;2023-04-29T09:51:56;100141.47;;;13.95;62.20
12963;BME280;6546;49.882;8.666;2023-04-29T09:54:24;100137.16;;;14.02;62.70
12963;BME280;6546;49.882;8.666;2023-04-29T09:56:53;100148.13;;;14.18;62.41
12963;BME280;6546;49.882;8.666;2023-04-29T09:59:21;100145.00;;;14.23;62.11
12963;BME280;6546;49.882;8.666;2023-04-29T10:01:50;100149.47;;;14.29;62.15
12963;BME280;6546;49.882;8.666;2023-04-29T10:04:19;100143.53;;;14.35;61.97
12963;BME280;6546;49.882;8.666;2023-04-29T10:06:48;100148.91;;;14.48;61.60
12963;BME280;6546;49.882;8.666;2023-04-29T10:09:17;100147.16;;;14.55;61.55
12963;BME280;6546;49.882;8.666;2023-04-29T10:11:45;100150.66;;;14.62;61.40
12963;BME280;6546;49.882;8.666;2023-04-29T10:14:14;100152.50;;;14.68;62.02
12963;BME280;6546;49.882;8.666;2023-04-29T10:16:46;100157.94;;;14.73;61.71
12963;BME280;6546;49.882;8.666;2023-04-29T10:19:23;100160.44;;;14.82;61.22
12963;BME280;6546;49.882;8.666;2023-04-29T10:21:52;100161.31;;;14.89;61.10
12963;BME280;6546;49.882;8.666;2023-04-29T10:24:21;100161.31;;;14.89;60.36
12963;BME280;6546;49.882;8.666;2023-04-29T10:26:50;100165.84;;;14.80;60.49
12963;BME280;6546;49.882;8.666;2023-04-29T10:29:18;100162.84;;;14.83;60.53
12963;BME280;6546;49.882;8.666;2023-04-29T10:31:47;100157.63;;;14.83;60.40
12963;BME280;6546;49.882;8.666;2023-04-29T10:34:16;100168.84;;;14.41;61.15
12963;BME280;6546;49.882;8.666;2023-04-29T10:36:43;100167.81;;;14.21;60.81
12963;BME280;6546;49.882;8.666;2023-04-29T10:39:17;100161.06;;;14.12;61.74
12963;BME280;6546;49.882;8.666;2023-04-29T10:41:47;100170.53;;;13.98;61.44
12963;BME280;6546;49.882;8.666;2023-04-29T10:44:16;100165.25;;;13.92;61.38
12963;BME280;6546;49.882;8.666;2023-04-29T10:46:42;100167.50;;;13.95;61.92
12963;BME280;6546;49.882;8.666;2023-04-29T10:49:09;100172.88;;;14.08;61.92
12963;BME280;6546;49.882;8.666;2023-04-29T10:51:39;100167.28;;;14.11;62.16
12963;BME280;6546;49.882;8.666;2023-04-29T10:54:07;100162.44;;;14.08;62.20
12963;BME280;6546;49.882;8.666;2023-04-29T10:56:39;100174.25;;;14.25;61.81
12963;BME280;6546;49.882;8.666;2023-04-29T10:59:10;100171.84;;;14.24;61.98
12963;BME280;6546;49.882;8.666;2023-04-29T11:01:49;100172.56;;;14.17;61.61
12963;BME280;6546;49.882;8.666;2023-04-29T11:04:17;100169.09;;;13.96;61.74
12963;BME280;6546;49.882;8.666;2023-04-29T11:06:45;100176.56;;;13.99;62.50
12963;BME280;6546;49.882;8.666;2023-04-29T11:09:24;100184.00;;;14.02;62.13
12963;BME280;6546;49.882;8.666;2023-04-29T11:11:59;100169.16;;;14.17;62.32
12963;BME280;6546;49.882;8.666;2023-04-29T11:14:31;100175.28;;;14.09;61.88
12963;BME280;6546;49.882;8.666;2023-04-29T11:17:00;100170.78;;;14.03;62.43
12963;BME280;6546;49.882;8.666;2023-04-29T11:19:30;100167.00;;;14.20;62.60
12963;BME280;6546;49.882;8.666;2023-04-29T11:22:10;100168.66;;;14.28;62.52
12963;BME280;6546;49.882;8.666;2023-04-29T11:24:48;100168.06;;;14.26;62.42
12963;BME280;6546;49.882;8.666;2023-04-29T11:27:15;100167.56;;;14.01;62.71
12963;BME280;6546;49.882;8.666;2023-04-29T11:29:44;100162.56;;;13.85;63.29
12963;BME280;6546;49.882;8.666;2023-04-29T11:32:11;100174.75;;;13.70;63.74
12963;BME280;6546;49.882;8.666;2023-04-29T11:34:38;100182.47;;;13.63;64.55
12963;BME280;6546;49.882;8.666;2023-04-29T11:37:05;100183.72;;;13.67;63.95
12963;BME280;6546;49.882;8.666;2023-04-29T11:39:32;100175.94;;;13.67;63.69
12963;BME280;6546;49.882;8.666;2023-04-29T11:42:03;100186.50;;;13.81;63.00
12963;BME280;6546;49.882;8.666;2023-04-29T11:44:29;100185.78;;;13.87;63.30
12963;BME280;6546;49.882;8.666;2023-04-29T11:47:01;100182.38;;;13.86;63.34
12963;BME280;6546;49.882;8.666;2023-04-29T11:49:29;100174.94;;;13.98;63.17
12963;BME280;6546;49.882;8.666;2023-04-29T11:51:56;100183.72;;;14.11;62.69
12963;BME280;6546;49.882;8.666;2023-04-29T11:54:24;100177.34;;;14.14;62.64
12963;BME280;6546;49.882;8.666;2023-04-29T11:56:52;100179.81;;;14.22;62.09
12963;BME280;6546;49.882;8.666;2023-04-29T11:59:19;100172.84;;;14.37;62.81
12963;BME280;6546;49.882;8.666;2023-04-29T12:01:45;100178.06;;;14.58;61.23
12963;BME280;6546;49.882;8.666;2023-04-29T12:04:13;100172.66;;;14.81;61.20
12963;BME280;6546;49.882;8.666;2023-04-29T12:06:40;100179.53;;;15.10;61.11
12963;BME280;6546;49.882;8.666;2023-04-29T12:09:07;100174.84;;;15.27;59.54
12963;BME280;6546;49.882;8.666;2023-04-29T12:11:36;100167.72;;;15.42;60.20
12963;BME280;6546;49.882;8.666;2023-04-29T12:14:03;100173.34;;;15.39;61.11
12963;BME280;6546;49.882;8.666;2023-04-29T12:16:30;100167.22;;;15.25;59.89
12963;BME280;6546;49.882;8.666;2023-04-29T12:18:58;100164.38;;;15.20;59.93
12963;BME280;6546;49.882;8.666;2023-04-29T12:21:26;100168.44;;;15.29;60.63
12963;BME280;6546;49.882;8.666;2023-04-29T12:23:53;100158.88;;;15.36;60.58
12963;BME280;6546;49.882;8.666;2023-04-29T12:26:20;100162.19;;;15.51;59.89
12963;BME280;6546;49.882;8.666;2023-04-29T12:28:47;100158.88;;;15.64;58.66
12963;BME280;6546;49.882;8.666;2023-04-29T12:31:14;100162.53;;;15.69;56.97
12963;BME280;6546;49.882;8.666;2023-04-29T12:33:42;100168.22;;;15.80;56.50
12963;BME280;6546;49.882;8.666;2023-04-29T12:36:15;100164.66;;;15.94;56.44
12963;BME280;6546;49.882;8.666;2023-04-29T12:38:46;100166.50;;;16.06;55.75
12963;BME280;6546;49.882;8.666;2023-04-29T12:41:13;100164.53;;;16.15;55.21
12963;BME280;6546;49.882;8.666;2023-04-29T12:43:41;100164.59;;;16.28;54.67
12963;BME280;6546;49.882;8.666;2023-04-29T12:46:09;100162.41;;;16.45;54.33
12963;BME280;6546;49.882;8.666;2023-04-29T12:48:37;100161.00;;;16.49;53.28
12963;BME280;6546;49.882;8.666;2023-04-29T12:51:07;100160.56;;;16.32;53.04
12963;BME280;6546;49.882;8.666;2023-04-29T12:53:34;100153.91;;;16.23;53.52
12963;BME280;6546;49.882;8.666;2023-04-29T12:56:02;100168.19;;;16.27;53.63
12963;BME280;6546;49.882;8.666;2023-04-29T12:58:29;100162.38;;;16.25;53.56
12963;BME280;6546;49.882;8.666;2023-04-29T13:00:56;100159.78;;;16.38;52.99
12963;BME280;6546;49.882;8.666;2023-04-29T13:03:23;100166.63;;;16.46;53.87
12963;BME280;6546;49.882;8.666;2023-04-29T13:05:49;100156.63;;;16.56;54.11
12963;BME280;6546;49.882;8.666;2023-04-29T13:08:18;100166.72;;;16.65;53.20